createdAt,value
2023-04-01T00:01:32.949Z,1.10
2023-04-01T00:04:02.868Z,0.80
2023-04-01T00:06:30.650Z,0.57
2023-04-01T00:08:57.716Z,1.25
2023-04-01T00:11:24.903Z,0.88
2023-04-01T00:13:51.998Z,0.80
2023-04-01T00:16:22.342Z,1.25
2023-04-01T00:18:50.843Z,0.63
2023-04-01T00:21:18.099Z,1.00
2023-04-01T00:23:45.300Z,0.90
2023-04-01T00:26:13.189Z,0.75
2023-04-01T00:28:41.007Z,0.70
2023-04-01T00:31:08.858Z,1.20
2023-04-01T00:33:36.588Z,0.70
2023-04-01T00:36:07.942Z,0.65
2023-04-01T00:38:34.862Z,0.70
2023-04-01T00:41:01.933Z,0.63
2023-04-01T00:43:29.123Z,0.73
2023-04-01T00:45:56.398Z,0.70
2023-04-01T00:48:26.413Z,1.15
2023-04-01T00:50:56.759Z,0.93
2023-04-01T00:53:24.507Z,0.60
2023-04-01T00:55:59.322Z,0.57
2023-04-01T00:58:26.416Z,0.85
2023-04-01T01:00:53.790Z,0.68
2023-04-01T01:03:21.086Z,0.60
2023-04-01T01:06:01.422Z,0.70
2023-04-01T01:08:39.068Z,0.70
2023-04-01T01:11:07.200Z,0.40
2023-04-01T01:13:40.760Z,0.65
2023-04-01T01:16:31.821Z,0.70
2023-04-01T01:19:18.125Z,0.60
2023-04-01T01:22:17.161Z,0.60
2023-04-01T01:24:54.641Z,0.65
2023-04-01T01:27:23.619Z,0.60
2023-04-01T01:30:17.796Z,0.77
2023-04-01T01:33:07.766Z,0.90
2023-04-01T01:35:37.236Z,0.82
2023-04-01T01:38:08.405Z,0.40
2023-04-01T01:40:36.259Z,0.77
2023-04-01T01:43:09.398Z,0.60
2023-04-01T01:45:37.358Z,0.75
2023-04-01T01:48:06.339Z,0.80
2023-04-01T01:50:34.123Z,0.50
2023-04-01T01:53:07.713Z,0.40
2023-04-01T01:55:37.629Z,0.50
2023-04-01T01:58:14.517Z,0.65
2023-04-01T02:00:45.251Z,0.40
2023-04-01T02:03:15.034Z,0.73
2023-04-01T02:05:42.188Z,0.73
2023-04-01T02:08:09.323Z,0.70
2023-04-01T02:10:38.356Z,0.60
2023-04-01T02:13:09.562Z,0.60
2023-04-01T02:15:41.246Z,0.75
2023-04-01T02:18:09.120Z,0.73
2023-04-01T02:20:38.886Z,0.47
2023-04-01T02:23:07.239Z,0.77
2023-04-01T02:25:36.435Z,0.57
2023-04-01T02:28:04.387Z,0.75
2023-04-01T02:30:34.378Z,0.73
2023-04-01T02:33:01.908Z,0.60
2023-04-01T02:35:29.088Z,0.65
2023-04-01T02:37:56.781Z,0.50
2023-04-01T02:40:24.390Z,0.75
2023-04-01T02:42:51.684Z,0.57
2023-04-01T02:45:18.843Z,0.57
2023-04-01T02:47:46.129Z,0.55
2023-04-01T02:50:13.172Z,0.60
2023-04-01T02:52:40.280Z,0.60
2023-04-01T02:55:07.698Z,0.68
2023-04-01T02:57:34.845Z,0.57
2023-04-01T03:00:01.964Z,0.93
2023-04-01T03:02:29.282Z,0.52
2023-04-01T03:04:56.357Z,0.50
2023-04-01T03:07:23.442Z,0.63
2023-04-01T03:09:50.641Z,0.70
2023-04-01T03:12:19.437Z,0.70
2023-04-01T03:14:46.071Z,0.55
2023-04-01T03:17:13.161Z,0.80
2023-04-01T03:19:40.286Z,0.63
2023-04-01T03:22:07.372Z,0.80
2023-04-01T03:24:34.486Z,0.60
2023-04-01T03:27:01.608Z,0.70
2023-04-01T03:29:28.266Z,0.65
2023-04-01T03:31:54.939Z,0.80
2023-04-01T03:34:21.658Z,0.70
2023-04-01T03:36:48.713Z,0.70
2023-04-01T03:39:19.545Z,0.90
2023-04-01T03:41:47.177Z,0.73
2023-04-01T03:44:14.267Z,0.93
2023-04-01T03:46:41.528Z,0.75
2023-04-01T03:49:13.266Z,0.77
2023-04-01T03:51:40.907Z,0.90
2023-04-01T03:54:08.023Z,0.60
2023-04-01T03:56:35.155Z,1.20
2023-04-01T03:59:05.329Z,0.70
2023-04-01T04:01:32.530Z,1.02
2023-04-01T04:04:00.226Z,0.50
2023-04-01T04:06:28.112Z,0.70
2023-04-01T04:08:55.208Z,0.80
2023-04-01T04:11:22.969Z,1.08
2023-04-01T04:13:50.261Z,0.50
2023-04-01T04:16:17.964Z,0.70
2023-04-01T04:18:45.293Z,0.60
2023-04-01T04:21:14.761Z,0.68
2023-04-01T04:23:42.140Z,0.55
2023-04-01T04:26:12.021Z,0.82
2023-04-01T04:28:39.284Z,0.70
2023-04-01T04:31:07.331Z,0.93
2023-04-01T04:33:35.216Z,0.80
2023-04-01T04:36:03.382Z,0.68
2023-04-01T04:38:30.351Z,0.68
2023-04-01T04:40:57.590Z,0.60
2023-04-01T04:43:24.687Z,0.68
2023-04-01T04:45:51.756Z,0.70
2023-04-01T04:48:21.089Z,0.93
2023-04-01T04:50:49.687Z,0.70
2023-04-01T04:53:17.397Z,0.77
2023-04-01T04:55:45.899Z,0.55
2023-04-01T04:58:13.240Z,0.70
2023-04-01T05:00:40.423Z,0.52
2023-04-01T05:03:07.664Z,0.55
2023-04-01T05:05:35.108Z,0.57
2023-04-01T05:08:02.388Z,0.63
2023-04-01T05:10:29.518Z,0.90
2023-04-01T05:12:56.653Z,0.63
2023-04-01T05:15:23.775Z,0.70
2023-04-01T05:17:50.919Z,0.40
2023-04-01T05:20:18.602Z,0.50
2023-04-01T05:22:47.909Z,0.60
2023-04-01T05:25:15.334Z,0.50
2023-04-01T05:27:42.412Z,0.63
2023-04-01T05:30:09.680Z,0.68
2023-04-01T05:32:36.826Z,0.57
2023-04-01T05:35:04.268Z,0.63
2023-04-01T05:37:31.363Z,0.40
2023-04-01T05:39:59.594Z,0.50
2023-04-01T05:42:26.768Z,0.32
2023-04-01T05:44:54.042Z,0.60
2023-04-01T05:47:21.148Z,1.05
2023-04-01T05:49:48.226Z,0.40
2023-04-01T05:52:15.707Z,0.60
2023-04-01T05:54:42.809Z,0.70
2023-04-01T05:57:09.882Z,0.52
2023-04-01T05:59:37.056Z,0.60
2023-04-01T06:02:04.249Z,0.63
2023-04-01T06:04:39.641Z,0.50
2023-04-01T06:07:15.758Z,0.60
2023-04-01T06:09:43.443Z,0.68
2023-04-01T06:12:33.332Z,0.80
2023-04-01T06:15:35.915Z,0.65
2023-04-01T06:18:03.470Z,0.73
2023-04-01T06:20:30.629Z,0.52
2023-04-01T06:22:57.726Z,0.60
2023-04-01T06:25:25.967Z,0.50
2023-04-01T06:28:01.985Z,0.50
2023-04-01T06:30:45.337Z,0.40
2023-04-01T06:33:15.972Z,0.40
2023-04-01T06:35:43.093Z,0.50
2023-04-01T06:38:49.623Z,0.60
2023-04-01T06:41:36.646Z,0.50
2023-04-01T06:44:31.456Z,0.65
2023-04-01T06:47:00.525Z,0.50
2023-04-01T06:49:30.711Z,0.63
2023-04-01T06:52:01.074Z,0.52
2023-04-01T06:54:39.851Z,0.50
2023-04-01T06:57:36.594Z,0.70
2023-04-01T07:00:05.770Z,0.70
2023-04-01T07:02:59.587Z,0.63
2023-04-01T07:05:27.924Z,0.30
2023-04-01T07:08:00.529Z,0.57
2023-04-01T07:10:36.848Z,0.52
2023-04-01T07:13:06.603Z,0.80
2023-04-01T07:15:36.360Z,0.63
2023-04-01T07:18:11.631Z,0.40
2023-04-01T07:20:39.608Z,0.40
2023-04-01T07:23:31.942Z,0.75
2023-04-01T07:26:15.772Z,0.40
2023-04-01T07:28:42.940Z,0.30
2023-04-01T07:31:32.076Z,0.98
2023-04-01T07:34:11.483Z,0.52
2023-04-01T07:37:02.573Z,0.80
2023-04-01T07:39:57.063Z,0.80
2023-04-01T07:42:59.577Z,0.65
2023-04-01T07:45:35.653Z,0.60
2023-04-01T07:48:25.421Z,0.50
2023-04-01T07:51:32.094Z,0.65
2023-04-01T07:54:01.417Z,0.50
2023-04-01T07:56:52.722Z,0.60
2023-04-01T07:59:25.931Z,0.57
2023-04-01T08:02:15.770Z,0.40
2023-04-01T08:04:58.267Z,0.63
2023-04-01T08:07:27.564Z,0.47
2023-04-01T08:10:00.865Z,0.32
2023-04-01T08:13:03.014Z,0.50
2023-04-01T08:15:39.427Z,0.50
2023-04-01T08:18:32.032Z,0.60
2023-04-01T08:21:02.213Z,0.70
2023-04-01T08:23:33.961Z,0.50
2023-04-01T08:26:05.536Z,0.45
2023-04-01T08:28:39.345Z,0.50
2023-04-01T08:31:13.185Z,1.23
2023-04-01T08:33:41.356Z,0.55
2023-04-01T08:36:22.025Z,0.40
2023-04-01T08:39:06.620Z,0.57
2023-04-01T08:41:34.780Z,0.52
2023-04-01T08:44:21.796Z,0.38
2023-04-01T08:47:06.808Z,0.75
2023-04-01T08:49:53.826Z,0.40
2023-04-01T08:52:24.209Z,0.30
2023-04-01T08:55:04.373Z,0.60
2023-04-01T08:57:52.104Z,0.30
2023-04-01T09:00:20.096Z,0.63
2023-04-01T09:03:26.685Z,0.30
2023-04-01T09:06:02.233Z,0.25
2023-04-01T09:08:34.871Z,0.35
2023-04-01T09:11:01.963Z,0.38
2023-04-01T09:13:49.982Z,0.40
2023-04-01T09:16:50.674Z,0.32
2023-04-01T09:19:29.550Z,0.43
2023-04-01T09:22:23.536Z,0.30
2023-04-01T09:25:30.018Z,0.40
2023-04-01T09:28:19.968Z,0.60
2023-04-01T09:30:54.131Z,0.55
2023-04-01T09:33:47.784Z,0.45
2023-04-01T09:36:47.024Z,0.40
2023-04-01T09:39:14.088Z,0.40
2023-04-01T09:42:01.246Z,0.60
2023-04-01T09:44:37.482Z,0.40
2023-04-01T09:47:25.060Z,0.38
2023-04-01T09:50:31.859Z,0.45
2023-04-01T09:53:38.368Z,0.40
2023-04-01T09:56:06.472Z,0.40
2023-04-01T09:59:12.971Z,0.32
2023-04-01T10:02:11.386Z,0.50
2023-04-01T10:04:59.003Z,0.75
2023-04-01T10:07:57.540Z,0.52
2023-04-01T10:10:59.538Z,0.47
2023-04-01T10:14:06.283Z,0.47
2023-04-01T10:16:40.950Z,0.40
2023-04-01T10:19:29.658Z,0.50
2023-04-01T10:22:36.262Z,0.43
2023-04-01T10:25:05.583Z,0.32
2023-04-01T10:27:34.422Z,0.40
2023-04-01T10:30:21.071Z,0.50
2023-04-01T10:33:27.689Z,0.30
2023-04-01T10:36:14.288Z,0.60
2023-04-01T10:39:00.779Z,0.40
2023-04-01T10:41:29.449Z,1.05
2023-04-01T10:44:08.631Z,0.30
2023-04-01T10:47:03.865Z,0.30
2023-04-01T10:49:39.560Z,0.40
2023-04-01T10:52:06.580Z,0.20
2023-04-01T10:54:34.805Z,0.30
2023-04-01T10:57:11.232Z,0.28
2023-04-01T11:00:09.662Z,0.50
2023-04-01T11:02:59.635Z,0.30
2023-04-01T11:06:06.607Z,0.65
2023-04-01T11:08:34.641Z,0.47
2023-04-01T11:11:41.200Z,0.40
2023-04-01T11:14:27.786Z,0.52
2023-04-01T11:17:28.178Z,0.30
2023-04-01T11:19:56.308Z,0.30
2023-04-01T11:22:23.352Z,0.30
2023-04-01T11:25:15.704Z,0.30
2023-04-01T11:27:52.960Z,0.20
2023-04-01T11:30:28.997Z,0.20
2023-04-01T11:32:59.187Z,0.17
2023-04-01T11:35:42.538Z,0.13
2023-04-01T11:38:40.168Z,0.20
2023-04-01T11:41:34.215Z,0.30
2023-04-01T11:44:01.219Z,0.10
2023-04-01T11:46:42.444Z,0.20
2023-04-01T11:49:24.415Z,0.20
2023-04-01T11:51:52.576Z,0.10
2023-04-01T11:54:20.915Z,0.20
2023-04-01T11:57:21.000Z,0.30
2023-04-01T12:00:17.696Z,0.15
2023-04-01T12:03:24.268Z,0.20
2023-04-01T12:05:51.457Z,0.20
2023-04-01T12:08:18.521Z,0.10
2023-04-01T12:11:16.633Z,0.17
2023-04-01T12:13:54.797Z,0.10
2023-04-01T12:16:32.994Z,0.20
2023-04-01T12:19:03.357Z,0.10
2023-04-01T12:21:36.580Z,0.10
2023-04-01T12:24:23.765Z,0.10
2023-04-01T12:26:51.832Z,0.10
2023-04-01T12:29:49.278Z,0.38
2023-04-01T12:32:16.621Z,0.13
2023-04-01T12:34:59.171Z,0.10
2023-04-01T12:38:06.395Z,0.10
2023-04-01T12:40:52.573Z,0.13
2023-04-01T12:43:39.186Z,0.13
2023-04-01T12:46:06.320Z,0.20
2023-04-01T12:49:05.872Z,0.10
2023-04-01T12:51:32.932Z,0.10
2023-04-01T12:54:39.456Z,0.20
2023-04-01T12:57:06.668Z,0.10
2023-04-01T13:00:13.213Z,0.30
2023-04-01T13:02:40.333Z,0.20
2023-04-01T13:05:14.793Z,0.10
2023-04-01T13:07:45.386Z,0.10
2023-04-01T13:10:41.684Z,0.10
2023-04-01T13:13:24.918Z,0.20
2023-04-01T13:16:12.604Z,0.20
2023-04-01T13:18:55.833Z,0.10
2023-04-01T13:21:52.415Z,0.10
2023-04-01T13:24:19.452Z,0.10
2023-04-01T13:27:06.403Z,0.10
2023-04-01T13:29:41.850Z,0.10
2023-04-01T13:32:18.891Z,0.38
2023-04-01T13:35:06.583Z,0.20
2023-04-01T13:37:36.217Z,0.20
2023-04-01T13:40:22.429Z,0.10
2023-04-01T13:42:52.578Z,0.10
2023-04-01T13:45:39.543Z,0.10
2023-04-01T13:48:06.927Z,0.10
2023-04-01T13:50:40.042Z,0.10
2023-04-01T13:53:07.126Z,0.20
2023-04-01T13:55:37.014Z,0.10
2023-04-01T13:58:07.501Z,0.10
2023-04-01T14:00:47.319Z,0.20
2023-04-01T14:03:22.220Z,0.17
2023-04-01T14:05:55.530Z,0.28
2023-04-01T14:08:47.533Z,0.10
2023-04-01T14:11:14.586Z,0.20
2023-04-01T14:13:41.617Z,0.10
2023-04-01T14:16:48.225Z,0.38
2023-04-01T14:19:54.872Z,0.10
2023-04-01T14:22:29.913Z,0.10
2023-04-01T14:25:19.785Z,0.20
2023-04-01T14:27:54.372Z,0.20
2023-04-01T14:30:44.189Z,0.32
2023-04-01T14:33:12.481Z,0.10
2023-04-01T14:35:52.794Z,0.20
2023-04-01T14:38:40.398Z,0.20
2023-04-01T14:41:08.580Z,0.40
2023-04-01T14:44:03.338Z,0.10
2023-04-01T14:46:53.177Z,0.10
2023-04-01T14:49:20.343Z,0.28
2023-04-01T14:51:47.633Z,0.10
2023-04-01T14:54:23.534Z,0.15
2023-04-01T14:56:54.224Z,0.10
2023-04-01T14:59:22.358Z,0.17
2023-04-01T15:01:58.137Z,0.35
2023-04-01T15:04:44.774Z,0.10
2023-04-01T15:07:51.893Z,0.10
2023-04-01T15:10:20.899Z,0.10
2023-04-01T15:12:55.941Z,0.20
2023-04-01T15:15:23.027Z,0.17
2023-04-01T15:17:57.200Z,0.10
2023-04-01T15:20:51.582Z,0.10
2023-04-01T15:23:18.647Z,0.13
2023-04-01T15:25:53.229Z,0.13
2023-04-01T15:28:36.605Z,0.32
2023-04-01T15:31:15.747Z,0.15
2023-04-01T15:33:53.143Z,0.20
2023-04-01T15:36:20.423Z,0.20
2023-04-01T15:38:54.631Z,0.30
2023-04-01T15:41:56.824Z,0.20
2023-04-01T15:45:03.979Z,0.30
2023-04-01T15:47:36.875Z,0.32
2023-04-01T15:50:27.085Z,0.28
2023-04-01T15:53:28.213Z,0.30
2023-04-01T15:55:55.314Z,0.32
2023-04-01T15:58:41.922Z,0.35
2023-04-01T16:01:38.847Z,0.50
2023-04-01T16:04:25.835Z,0.30
2023-04-01T16:07:12.467Z,0.35
2023-04-01T16:09:40.515Z,0.60
2023-04-01T16:12:47.136Z,0.40
2023-04-01T16:15:42.688Z,0.50
2023-04-01T16:18:09.730Z,0.68
2023-04-01T16:20:54.515Z,0.80
2023-04-01T16:23:47.682Z,0.73
2023-04-01T16:26:24.913Z,0.80
2023-04-01T16:29:05.973Z,0.90
2023-04-01T16:31:46.514Z,0.30
2023-04-01T16:34:18.361Z,0.77
2023-04-01T16:36:45.391Z,0.73
2023-04-01T16:39:15.663Z,0.85
2023-04-01T16:41:44.298Z,0.90
2023-04-01T16:44:20.757Z,1.20
2023-04-01T16:46:53.083Z,1.10
2023-04-01T16:49:31.197Z,1.10
2023-04-01T16:52:16.749Z,0.90
2023-04-01T16:55:13.012Z,1.30
2023-04-01T16:58:01.469Z,1.13
2023-04-01T17:00:32.918Z,0.82
2023-04-01T17:03:08.903Z,0.88
2023-04-01T17:05:41.193Z,1.50
2023-04-01T17:08:31.269Z,1.42
2023-04-01T17:11:05.740Z,1.27
2023-04-01T17:13:58.722Z,1.23
2023-04-01T17:16:32.935Z,1.20
2023-04-01T17:19:23.839Z,0.60
2023-04-01T17:22:02.129Z,1.20
2023-04-01T17:25:09.017Z,0.75
2023-04-01T17:28:03.082Z,1.85
2023-04-01T17:30:53.160Z,0.70
2023-04-01T17:33:27.086Z,0.82
2023-04-01T17:35:55.250Z,0.70
2023-04-01T17:38:51.144Z,0.60
2023-04-01T17:41:30.436Z,0.68
2023-04-01T17:43:57.587Z,0.90
2023-04-01T17:46:38.109Z,0.82
2023-04-01T17:49:08.415Z,1.08
2023-04-01T17:51:41.315Z,1.10
2023-04-01T17:54:30.185Z,0.65
2023-04-01T17:57:09.237Z,1.25
2023-04-01T17:59:50.116Z,1.65
2023-04-01T18:02:18.874Z,1.95
2023-04-01T18:05:25.846Z,1.83
2023-04-01T18:08:07.612Z,1.17
2023-04-01T18:10:42.164Z,0.90
2023-04-01T18:13:18.568Z,0.60
2023-04-01T18:15:59.860Z,1.10
2023-04-01T18:18:51.088Z,1.00
2023-04-01T18:21:31.023Z,1.67
2023-04-01T18:24:14.981Z,1.77
2023-04-01T18:26:45.493Z,1.25
2023-04-01T18:29:20.217Z,1.73
2023-04-01T18:31:52.265Z,2.20
2023-04-01T18:34:22.150Z,2.00
2023-04-01T18:37:28.669Z,2.65
2023-04-01T18:39:59.285Z,1.15
2023-04-01T18:42:46.898Z,2.03
2023-04-01T18:45:32.352Z,1.35
2023-04-01T18:48:12.261Z,3.55
2023-04-01T18:50:59.294Z,2.10
2023-04-01T18:53:37.397Z,1.25
2023-04-01T18:56:07.126Z,1.38
2023-04-01T18:58:36.460Z,1.33
2023-04-01T19:01:29.152Z,2.28
2023-04-01T19:03:57.672Z,2.67
2023-04-01T19:06:34.556Z,1.20
2023-04-01T19:09:01.566Z,1.23
2023-04-01T19:11:50.694Z,1.20
2023-04-01T19:14:40.879Z,1.70
2023-04-01T19:17:37.992Z,1.38
2023-04-01T19:20:18.295Z,1.65
2023-04-01T19:23:08.088Z,1.50
2023-04-01T19:25:51.936Z,1.33
2023-04-01T19:28:27.127Z,1.38
2023-04-01T19:31:04.632Z,1.55
2023-04-01T19:33:32.174Z,1.50
2023-04-01T19:36:00.513Z,2.17
2023-04-01T19:38:40.675Z,2.00
2023-04-01T19:41:21.202Z,1.63
2023-04-01T19:44:13.311Z,2.15
2023-04-01T19:46:43.690Z,1.02
2023-04-01T19:49:35.595Z,0.90
2023-04-01T19:52:14.227Z,1.00
2023-04-01T19:54:51.853Z,1.25
2023-04-01T19:57:27.975Z,0.77
2023-04-01T20:00:07.285Z,0.85
2023-04-01T20:02:35.509Z,0.80
2023-04-01T20:05:22.284Z,0.80
2023-04-01T20:07:53.853Z,0.75
2023-04-01T20:10:46.721Z,0.60
2023-04-01T20:13:26.382Z,1.10
2023-04-01T20:16:01.851Z,0.90
2023-04-01T20:18:35.722Z,0.98
2023-04-01T20:21:18.900Z,1.30
2023-04-01T20:23:46.304Z,1.00
2023-04-01T20:26:15.684Z,1.00
2023-04-01T20:28:48.110Z,0.85
2023-04-01T20:31:21.500Z,1.23
2023-04-01T20:33:55.552Z,1.92
2023-04-01T20:37:02.353Z,0.70
2023-04-01T20:39:47.916Z,0.70
2023-04-01T20:42:54.419Z,0.90
2023-04-01T20:45:21.532Z,1.40
2023-04-01T20:47:57.802Z,1.30
2023-04-01T20:50:25.070Z,1.38
2023-04-01T20:52:52.080Z,2.25
2023-04-01T20:55:26.635Z,1.65
2023-04-01T20:58:25.426Z,1.70
2023-04-01T21:01:15.457Z,1.75
2023-04-01T21:03:50.052Z,1.52
2023-04-01T21:06:36.606Z,1.60
2023-04-01T21:09:10.731Z,1.70
2023-04-01T21:12:02.342Z,1.42
2023-04-01T21:15:01.234Z,1.33
2023-04-01T21:17:31.555Z,1.48
2023-04-01T21:19:58.655Z,1.23
2023-04-01T21:22:46.251Z,0.70
2023-04-01T21:25:16.668Z,0.80
2023-04-01T21:28:03.705Z,0.95
2023-04-01T21:30:38.105Z,0.80
2023-04-01T21:33:20.564Z,0.90
2023-04-01T21:35:48.717Z,0.80
2023-04-01T21:38:16.850Z,1.25
2023-04-01T21:40:51.670Z,0.77
2023-04-01T21:43:33.037Z,0.60
2023-04-01T21:46:39.564Z,0.85
2023-04-01T21:49:36.093Z,0.80
2023-04-01T21:52:03.204Z,0.98
2023-04-01T21:54:44.821Z,0.68
2023-04-01T21:57:26.235Z,0.70
2023-04-01T22:00:05.011Z,0.70
2023-04-01T22:02:44.156Z,0.70
2023-04-01T22:05:20.968Z,0.75
2023-04-01T22:08:23.126Z,0.65
2023-04-01T22:10:59.746Z,0.80
2023-04-01T22:13:27.074Z,0.60
2023-04-01T22:15:59.141Z,0.65
2023-04-01T22:18:35.475Z,0.68
2023-04-01T22:21:22.188Z,0.50
2023-04-01T22:23:57.482Z,0.80
2023-04-01T22:26:24.719Z,0.93
2023-04-01T22:29:14.589Z,0.90
2023-04-01T22:31:47.218Z,0.50
2023-04-01T22:34:24.239Z,0.82
2023-04-01T22:36:53.449Z,0.70
2023-04-01T22:39:20.507Z,0.60
2023-04-01T22:42:07.087Z,0.68
2023-04-01T22:44:51.518Z,0.60
2023-04-01T22:47:40.393Z,0.75
2023-04-01T22:50:17.657Z,0.45
2023-04-01T22:52:47.903Z,0.85
2023-04-01T22:55:28.358Z,0.77
2023-04-01T22:58:01.143Z,0.80
2023-04-01T23:00:53.113Z,0.80
2023-04-01T23:03:24.091Z,0.60
2023-04-01T23:05:53.337Z,0.70
2023-04-01T23:08:55.892Z,0.80
2023-04-01T23:11:29.994Z,0.80
2023-04-01T23:14:27.206Z,0.90
2023-04-01T23:16:58.107Z,0.70
2023-04-01T23:19:44.494Z,0.95
2023-04-01T23:22:29.927Z,0.82
2023-04-01T23:25:25.668Z,0.90
2023-04-01T23:28:15.859Z,1.00
2023-04-01T23:30:42.876Z,0.90
2023-04-01T23:33:20.953Z,1.00
2023-04-01T23:35:53.129Z,0.90
2023-04-01T23:38:23.414Z,1.10
2023-04-01T23:40:52.137Z,1.02
2023-04-01T23:43:24.318Z,1.15
2023-04-01T23:45:51.408Z,1.00
2023-04-01T23:48:21.522Z,1.02
2023-04-01T23:50:48.256Z,1.00
2023-04-01T23:53:21.463Z,1.23
2023-04-01T23:55:48.776Z,1.20
2023-04-01T23:58:41.528Z,0.98
